createdAt,value
2022-09-05T00:02:51.297Z,17.17
2022-09-05T00:06:02.265Z,17.17
2022-09-05T00:08:58.808Z,17.01
2022-09-05T00:11:57.134Z,17.01
2022-09-05T00:15:18.051Z,16.94
2022-09-05T00:22:42.396Z,17.02
2022-09-05T00:24:19.903Z,16.90
2022-09-05T00:25:21.180Z,16.97
2022-09-05T00:28:25.408Z,16.94
2022-09-05T00:31:53.353Z,16.88
2022-09-05T00:34:47.979Z,16.90
2022-09-05T00:37:33.749Z,16.88
2022-09-05T00:40:27.999Z,16.73
2022-09-05T00:43:17.029Z,16.74
2022-09-05T00:46:10.620Z,16.79
2022-09-05T00:49:02.235Z,16.80
2022-09-05T00:51:35.622Z,16.79
2022-09-05T00:54:44.557Z,16.77
2022-09-05T00:57:54.072Z,16.71
2022-09-05T01:00:25.664Z,16.65
2022-09-05T01:03:42.061Z,16.67
2022-09-05T01:06:24.338Z,16.59
2022-09-05T01:09:29.819Z,16.54
2022-09-05T01:12:18.302Z,16.50
2022-09-05T01:15:18.580Z,16.52
2022-09-05T01:18:16.877Z,16.45
2022-09-05T01:21:32.233Z,16.38
2022-09-05T01:24:11.676Z,16.45
2022-09-05T01:26:44.851Z,16.40
2022-09-05T01:29:23.474Z,16.38
2022-09-05T01:32:00.140Z,16.27
2022-09-05T01:34:34.511Z,16.27
2022-09-05T01:37:26.576Z,16.22
2022-09-05T01:40:16.495Z,16.19
2022-09-05T01:43:36.146Z,15.97
2022-09-05T01:46:26.216Z,16.05
2022-09-05T01:49:38.750Z,16.09
2022-09-05T01:52:19.140Z,16.02
2022-09-05T01:54:57.019Z,16.09
2022-09-05T01:57:51.535Z,16.04
2022-09-05T02:00:25.493Z,16.04
2022-09-05T02:03:29.532Z,16.05
2022-09-05T02:06:29.504Z,16.03
2022-09-05T02:09:06.654Z,16.07
2022-09-05T02:11:51.382Z,16.04
2022-09-05T02:14:44.564Z,15.86
2022-09-05T02:17:27.394Z,15.87
2022-09-05T02:20:25.545Z,15.78
2022-09-05T02:23:40.141Z,15.74
2022-09-05T02:26:06.504Z,15.72
2022-09-05T02:28:42.102Z,15.55
2022-09-05T02:31:19.502Z,15.61
2022-09-05T02:34:03.295Z,15.45
2022-09-05T02:36:43.978Z,15.58
2022-09-05T02:45:04.247Z,15.52
2022-09-05T02:45:10.558Z,15.53
2022-09-05T02:45:55.601Z,15.42
2022-09-05T02:48:48.825Z,15.45
2022-09-05T02:57:24.731Z,15.46
2022-09-05T02:57:42.485Z,15.48
2022-09-05T02:58:18.050Z,15.41
2022-09-05T03:00:52.870Z,15.31
2022-09-05T03:03:40.627Z,15.33
2022-09-05T03:06:34.933Z,15.33
2022-09-05T03:09:21.183Z,15.31
2022-09-05T03:12:00.369Z,15.36
2022-09-05T03:15:19.358Z,15.36
2022-09-05T03:18:23.414Z,15.29
2022-09-05T03:21:38.074Z,15.23
2022-09-05T03:24:29.279Z,15.20
2022-09-05T03:27:17.690Z,15.14
2022-09-05T03:30:19.379Z,15.16
2022-09-05T03:33:34.068Z,15.15
2022-09-05T03:36:19.761Z,15.12
2022-09-05T03:39:22.871Z,15.17
2022-09-05T03:42:03.326Z,14.95
2022-09-05T03:44:57.869Z,14.95
2022-09-05T03:48:23.086Z,14.95
2022-09-05T03:56:22.271Z,14.87
2022-09-05T03:57:15.204Z,14.84
2022-09-05T03:58:16.325Z,14.86
2022-09-05T04:02:27.692Z,14.70
2022-09-05T04:08:08.181Z,14.67
2022-09-05T04:08:29.250Z,14.80
2022-09-05T04:09:51.433Z,14.75
2022-09-05T04:12:30.685Z,14.78
2022-09-05T04:15:22.778Z,14.74
2022-09-05T04:18:11.035Z,14.67
2022-09-05T04:20:52.280Z,14.62
2022-09-05T04:23:29.091Z,14.56
2022-09-05T04:26:43.600Z,14.64
2022-09-05T04:29:26.262Z,14.65
2022-09-05T04:32:19.717Z,14.55
2022-09-05T04:35:13.825Z,14.62
2022-09-05T04:38:17.954Z,14.61
2022-09-05T04:41:13.936Z,14.57
2022-09-05T04:43:49.989Z,14.57
2022-09-05T04:46:28.906Z,14.51
2022-09-05T04:49:20.528Z,14.39
2022-09-05T04:52:11.240Z,14.44
2022-09-05T04:55:01.741Z,14.48
2022-09-05T04:57:52.688Z,14.52
2022-09-05T05:06:02.790Z,14.56
2022-09-05T05:06:18.347Z,14.57
2022-09-05T05:06:44.123Z,14.61
2022-09-05T05:09:23.129Z,14.47
2022-09-05T05:17:53.994Z,14.51
2022-09-05T05:18:08.469Z,14.57
2022-09-05T05:18:09.754Z,14.56
2022-09-05T05:21:29.018Z,14.39
2022-09-05T05:23:57.968Z,14.43
2022-09-05T05:26:34.806Z,14.55
2022-09-05T05:29:09.585Z,14.60
2022-09-05T05:31:56.300Z,14.71
2022-09-05T05:34:27.764Z,14.78
2022-09-05T05:37:11.516Z,14.73
2022-09-05T05:39:44.823Z,14.80
2022-09-05T05:42:20.864Z,14.74
2022-09-05T05:44:58.340Z,14.80
2022-09-05T05:47:32.742Z,14.91
2022-09-05T05:50:22.474Z,15.02
2022-09-05T05:53:07.066Z,15.04
2022-09-05T05:56:07.644Z,15.10
2022-09-05T05:59:11.436Z,15.14
2022-09-05T06:02:02.505Z,15.01
2022-09-05T06:05:04.157Z,15.07
2022-09-05T06:07:50.975Z,15.18
2022-09-05T06:14:57.618Z,15.15
2022-09-05T06:15:00.482Z,15.14
2022-09-05T06:18:16.191Z,15.27
2022-09-05T06:22:10.741Z,15.39
2022-09-05T06:28:18.179Z,15.70
2022-09-05T06:31:29.173Z,15.89
2022-09-05T06:34:35.637Z,16.08
2022-09-05T06:37:26.810Z,16.24
2022-09-05T06:40:44.858Z,16.38
2022-09-05T06:43:27.758Z,16.64
2022-09-05T06:47:05.702Z,16.73
2022-09-05T06:49:30.226Z,16.87
2022-09-05T06:52:42.550Z,16.98
2022-09-05T06:55:28.032Z,17.24
2022-09-05T06:58:24.274Z,17.38
2022-09-05T07:00:53.896Z,17.51
2022-09-05T07:03:59.396Z,17.67
2022-09-05T07:07:10.888Z,17.96
2022-09-05T07:10:22.017Z,18.21
2022-09-05T07:12:58.982Z,18.40
2022-09-05T07:16:00.514Z,18.55
2022-09-05T07:19:14.683Z,18.59
2022-09-05T07:22:44.490Z,18.67
2022-09-05T07:25:04.316Z,18.92
2022-09-05T07:27:41.920Z,19.00
2022-09-05T07:30:23.368Z,19.03
2022-09-05T07:32:53.561Z,19.10
2022-09-05T07:35:41.977Z,19.24
2022-09-05T07:38:38.104Z,19.37
2022-09-05T07:41:25.013Z,19.63
2022-09-05T07:43:56.540Z,19.96
2022-09-05T07:46:35.606Z,20.09
2022-09-05T07:49:06.445Z,20.24
2022-09-05T07:56:56.830Z,20.36
2022-09-05T07:57:09.218Z,20.43
2022-09-05T07:57:30.949Z,20.50
2022-09-05T08:00:26.938Z,20.68
2022-09-05T08:03:06.868Z,20.77
2022-09-05T08:05:50.669Z,20.83
2022-09-05T08:08:24.503Z,21.15
2022-09-05T08:11:23.938Z,21.23
2022-09-05T08:14:09.066Z,21.27
2022-09-05T08:16:49.150Z,21.39
2022-09-05T08:20:08.528Z,21.43
2022-09-05T08:22:52.139Z,21.54
2022-09-05T08:25:36.411Z,21.59
2022-09-05T08:28:37.499Z,21.68
2022-09-05T08:31:24.653Z,21.74
2022-09-05T08:33:53.565Z,21.76
2022-09-05T08:36:30.795Z,21.81
2022-09-05T08:39:00.385Z,21.93
2022-09-05T08:41:52.273Z,22.16
2022-09-05T08:46:42.371Z,22.31
2022-09-05T08:48:18.082Z,22.40
2022-09-05T08:51:24.979Z,22.65
2022-09-05T08:54:17.655Z,22.76
2022-09-05T08:56:54.966Z,22.65
2022-09-05T09:00:19.723Z,22.72
2022-09-05T09:03:18.123Z,22.67
2022-09-05T09:06:33.021Z,22.81
2022-09-05T09:15:00.745Z,23.91
2022-09-05T09:17:45.857Z,23.93
2022-09-05T09:23:41.973Z,24.22
2022-09-05T09:26:17.656Z,24.29
2022-09-05T09:29:04.269Z,24.32
2022-09-05T09:31:51.436Z,24.11
2022-09-05T09:34:47.246Z,24.19
2022-09-05T09:37:59.392Z,24.12
2022-09-05T09:40:35.560Z,24.27
2022-09-05T09:43:28.109Z,24.19
2022-09-05T09:46:18.853Z,24.43
2022-09-05T09:49:22.711Z,24.64
2022-09-05T09:52:09.092Z,24.77
2022-09-05T09:55:29.961Z,25.06
2022-09-05T09:58:14.990Z,25.31
2022-09-05T10:01:20.274Z,25.52
2022-09-05T10:10:38.769Z,25.63
2022-09-05T10:10:49.409Z,25.81
2022-09-05T10:11:52.867Z,25.71
2022-09-05T10:14:56.555Z,25.97
2022-09-05T10:21:19.299Z,26.15
2022-09-05T10:24:01.151Z,26.14
2022-09-05T10:27:06.050Z,26.45
2022-09-05T10:35:07.644Z,26.63
2022-09-05T10:35:59.162Z,26.60
2022-09-05T10:38:38.917Z,26.67
2022-09-05T10:41:21.853Z,26.87
2022-09-05T10:44:04.276Z,26.82
2022-09-05T10:47:06.943Z,27.21
2022-09-05T10:49:43.594Z,27.47
2022-09-05T10:52:40.278Z,27.45
2022-09-05T10:55:22.220Z,27.58
2022-09-05T10:58:12.474Z,27.66
2022-09-05T11:02:29.473Z,27.63
2022-09-05T11:03:56.273Z,27.83
2022-09-05T11:07:01.386Z,27.85
2022-09-05T11:09:36.930Z,27.71
2022-09-05T11:12:10.021Z,27.68
2022-09-05T11:14:52.613Z,27.41
2022-09-05T11:17:38.843Z,27.38
2022-09-05T11:20:58.938Z,27.41
2022-09-05T11:23:39.921Z,27.83
2022-09-05T11:26:22.935Z,28.14
2022-09-05T11:29:02.589Z,28.26
2022-09-05T11:32:04.232Z,28.47
2022-09-05T11:39:47.232Z,28.65
2022-09-05T11:39:53.892Z,28.43
2022-09-05T11:41:35.944Z,28.02
2022-09-05T11:44:30.118Z,28.04
2022-09-05T11:47:30.167Z,28.38
2022-09-05T11:50:37.572Z,28.56
2022-09-05T11:53:50.791Z,28.60
2022-09-05T11:56:52.631Z,28.47
2022-09-05T11:59:35.060Z,28.48
2022-09-05T12:02:26.461Z,28.42
2022-09-05T12:05:48.666Z,28.36
2022-09-05T12:08:40.135Z,28.53
2022-09-05T12:11:47.875Z,28.76
2022-09-05T12:18:19.360Z,28.90
2022-09-05T12:25:24.145Z,29.12
2022-09-05T12:27:38.042Z,29.34
2022-09-05T12:30:06.899Z,29.46
2022-09-05T12:35:18.298Z,29.55
2022-09-05T12:36:10.059Z,29.53
2022-09-05T12:40:56.915Z,29.45
2022-09-05T12:41:43.408Z,29.54
2022-09-05T12:42:09.784Z,28.81
2022-09-05T12:42:09.813Z,28.83
2022-09-05T12:44:57.132Z,29.56
2022-09-05T12:47:30.235Z,29.34
2022-09-05T12:50:15.268Z,29.42
2022-09-05T12:52:47.015Z,29.34
2022-09-05T12:55:26.470Z,29.41
2022-09-05T13:03:02.855Z,29.36
2022-09-05T13:03:08.457Z,29.38
2022-09-05T13:03:53.526Z,29.42
2022-09-05T13:06:58.983Z,29.22
2022-09-05T13:09:32.307Z,29.19
2022-09-05T13:14:53.611Z,29.52
2022-09-05T13:15:24.753Z,29.59
2022-09-05T13:18:21.733Z,29.77
2022-09-05T13:20:59.382Z,29.87
2022-09-05T13:24:05.799Z,29.89
2022-09-05T13:26:40.188Z,30.04
2022-09-05T13:29:22.124Z,29.70
2022-09-05T13:37:58.750Z,29.93
2022-09-05T13:38:12.465Z,30.35
2022-09-05T13:38:14.610Z,30.23
2022-09-05T13:40:40.621Z,30.46
2022-09-05T13:43:28.175Z,30.33
2022-09-05T13:46:18.948Z,30.31
2022-09-05T13:51:44.688Z,30.15
2022-09-05T13:54:36.839Z,30.17
2022-09-05T13:57:32.522Z,30.49
2022-09-05T14:00:29.270Z,30.72
2022-09-05T14:03:38.409Z,30.91
2022-09-05T14:06:45.632Z,30.54
2022-09-05T14:09:53.999Z,30.74
2022-09-05T14:13:07.706Z,30.68
2022-09-05T14:16:07.927Z,30.98
2022-09-05T14:19:04.682Z,30.79
2022-09-05T14:21:36.835Z,30.09
2022-09-05T14:24:12.480Z,29.79
2022-09-05T14:27:03.226Z,29.84
2022-09-05T14:29:48.887Z,29.83
2022-09-05T14:37:44.745Z,30.22
2022-09-05T14:38:38.866Z,30.34
2022-09-05T14:41:24.345Z,30.41
2022-09-05T14:44:28.312Z,30.58
2022-09-05T14:47:32.292Z,30.35
2022-09-05T14:50:17.668Z,30.30
2022-09-05T14:57:23.477Z,29.94
2022-09-05T15:02:49.360Z,29.93
2022-09-05T15:02:49.861Z,30.04
2022-09-05T15:05:16.627Z,30.06
2022-09-05T15:07:48.571Z,29.97
2022-09-05T15:12:14.289Z,30.03
2022-09-05T15:13:29.149Z,29.92
2022-09-05T15:16:02.799Z,29.75
2022-09-05T15:18:39.469Z,29.41
2022-09-05T15:21:34.048Z,29.19
2022-09-05T15:24:19.517Z,29.19
2022-09-05T15:26:59.202Z,29.10
2022-09-05T15:29:34.643Z,29.00
2022-09-05T15:32:21.691Z,28.86
2022-09-05T15:34:49.931Z,28.85
2022-09-05T15:37:33.373Z,28.75
2022-09-05T15:40:07.729Z,28.53
2022-09-05T15:43:01.059Z,28.56
2022-09-05T15:45:31.959Z,28.50
2022-09-05T15:48:18.237Z,28.47
2022-09-05T15:50:51.594Z,28.38
2022-09-05T15:53:34.285Z,28.27
2022-09-05T15:56:17.003Z,28.19
2022-09-05T15:58:53.595Z,28.10
2022-09-05T16:01:58.605Z,28.07
2022-09-05T16:08:52.142Z,28.12
2022-09-05T16:10:34.320Z,27.97
2022-09-05T16:10:49.756Z,27.93
2022-09-05T16:12:54.979Z,27.74
2022-09-05T16:19:58.176Z,27.60
2022-09-05T16:23:14.179Z,27.60
2022-09-05T16:23:26.780Z,27.67
2022-09-05T16:24:05.194Z,27.51
2022-09-05T16:26:40.292Z,27.37
2022-09-05T16:29:26.416Z,27.40
2022-09-05T16:32:22.059Z,27.31
2022-09-05T16:35:02.890Z,27.31
2022-09-05T16:37:45.067Z,27.33
2022-09-05T16:40:22.110Z,27.34
2022-09-05T16:43:00.483Z,27.17
2022-09-05T16:46:14.543Z,27.17
2022-09-05T16:49:13.685Z,27.14
2022-09-05T16:51:45.710Z,27.13
2022-09-05T16:54:41.948Z,27.10
2022-09-05T16:57:26.879Z,26.96
2022-09-05T16:59:53.769Z,26.89
2022-09-05T17:02:45.571Z,26.85
2022-09-05T17:05:30.102Z,26.87
2022-09-05T17:08:20.295Z,26.88
2022-09-05T17:10:57.644Z,26.85
2022-09-05T17:13:54.027Z,26.78
2022-09-05T17:16:35.328Z,26.72
2022-09-05T17:19:03.373Z,26.64
2022-09-05T17:24:16.851Z,26.66
2022-09-05T17:28:52.724Z,26.59
2022-09-05T17:29:32.753Z,26.50
2022-09-05T17:32:54.101Z,26.39
2022-09-05T17:36:16.826Z,26.33
2022-09-05T17:39:01.553Z,26.28
2022-09-05T17:41:58.804Z,26.19
2022-09-05T17:45:15.110Z,26.09
2022-09-05T17:47:49.898Z,25.98
2022-09-05T17:50:20.177Z,26.00
2022-09-05T17:53:25.355Z,25.82
2022-09-05T17:56:14.839Z,25.90
2022-09-05T17:59:01.856Z,25.85
2022-09-05T18:01:31.190Z,25.73
2022-09-05T18:04:15.729Z,25.70
2022-09-05T18:06:59.153Z,25.71
2022-09-05T18:10:13.023Z,25.53
2022-09-05T18:13:12.786Z,25.34
2022-09-05T18:16:15.545Z,25.35
2022-09-05T18:19:28.101Z,25.28
2022-09-05T18:21:48.340Z,25.23
2022-09-05T18:24:32.641Z,25.15
2022-09-05T18:27:15.074Z,25.17
2022-09-05T18:30:22.070Z,25.07
2022-09-05T18:33:53.687Z,24.99
2022-09-05T18:36:39.766Z,24.93
2022-09-05T18:39:46.819Z,24.88
2022-09-05T18:42:26.015Z,24.70
2022-09-05T18:45:15.306Z,24.69
2022-09-05T18:47:51.316Z,24.72
2022-09-05T18:50:28.827Z,24.61
2022-09-05T18:53:09.447Z,24.61
2022-09-05T18:56:12.254Z,24.59
2022-09-05T18:59:09.370Z,24.58
2022-09-05T19:01:42.056Z,24.52
2022-09-05T19:04:41.501Z,24.40
2022-09-05T19:07:08.998Z,24.39
2022-09-05T19:09:38.304Z,24.27
2022-09-05T19:12:33.627Z,24.31
2022-09-05T19:15:06.874Z,24.31
2022-09-05T19:17:39.090Z,24.29
2022-09-05T19:20:33.383Z,24.14
2022-09-05T19:23:10.625Z,24.07
2022-09-05T19:25:45.269Z,24.01
2022-09-05T19:34:15.620Z,23.85
2022-09-05T19:36:59.602Z,23.81
2022-09-05T19:37:08.547Z,23.81
2022-09-05T19:37:31.079Z,23.71
2022-09-05T19:45:05.624Z,23.50
2022-09-05T19:47:26.678Z,23.51
2022-09-05T19:47:42.435Z,23.65
2022-09-05T19:48:41.839Z,23.25
2022-09-05T19:51:16.975Z,23.31
2022-09-05T19:53:54.061Z,23.23
2022-09-05T19:56:43.700Z,23.16
2022-09-05T19:59:23.145Z,22.97
2022-09-05T20:01:52.282Z,23.02
2022-09-05T20:04:19.836Z,22.85
2022-09-05T20:06:48.573Z,22.84
2022-09-05T20:09:21.367Z,22.86
2022-09-05T20:11:50.541Z,22.57
2022-09-05T20:14:25.804Z,22.35
2022-09-05T20:16:56.285Z,22.51
2022-09-05T20:19:28.692Z,22.61
2022-09-05T20:21:58.602Z,22.48
2022-09-05T20:24:25.855Z,22.22
2022-09-05T20:26:52.854Z,22.22
2022-09-05T20:30:06.347Z,22.35
2022-09-05T20:32:42.550Z,22.22
2022-09-05T20:37:04.590Z,22.10
2022-09-05T20:43:19.663Z,22.15
2022-09-05T20:43:31.552Z,22.14
2022-09-05T20:44:22.681Z,22.17
2022-09-05T20:50:51.280Z,22.05
2022-09-05T20:54:09.168Z,22.00
2022-09-05T20:54:22.766Z,22.00
2022-09-05T20:55:42.050Z,21.94
2022-09-05T20:58:14.890Z,22.04
2022-09-05T21:01:19.805Z,22.03
2022-09-05T21:03:38.246Z,21.94
2022-09-05T21:06:22.283Z,21.96
2022-09-05T21:08:50.717Z,21.99
2022-09-05T21:11:17.866Z,21.99
2022-09-05T21:13:52.281Z,21.98
2022-09-05T21:16:28.975Z,22.16
2022-09-05T21:18:56.160Z,22.05
2022-09-05T21:21:32.101Z,22.01
2022-09-05T21:24:16.949Z,21.87
2022-09-05T21:26:48.863Z,21.78
2022-09-05T21:29:24.970Z,21.70
2022-09-05T21:32:00.110Z,21.71
2022-09-05T21:34:35.599Z,21.60
2022-09-05T21:37:07.591Z,21.58
2022-09-05T21:39:46.747Z,21.72
2022-09-05T21:43:20.273Z,21.69
2022-09-05T21:47:43.208Z,21.66
2022-09-05T21:48:02.837Z,21.57
2022-09-05T21:50:33.622Z,21.48
2022-09-05T21:54:21.064Z,21.50
2022-09-05T21:59:29.388Z,21.52
2022-09-05T21:59:32.701Z,21.55
2022-09-05T22:01:51.268Z,21.59
2022-09-05T22:04:15.703Z,21.58
2022-09-05T22:06:44.955Z,21.53
2022-09-05T22:09:13.603Z,21.40
2022-09-05T22:11:41.501Z,21.40
2022-09-05T22:14:09.499Z,21.41
2022-09-05T22:16:44.976Z,21.35
2022-09-05T22:19:23.131Z,21.44
2022-09-05T22:21:59.859Z,21.42
2022-09-05T22:24:29.493Z,21.42
2022-09-05T22:27:12.715Z,21.35
2022-09-05T22:29:40.156Z,21.24
2022-09-05T22:32:07.521Z,21.43
2022-09-05T22:34:34.371Z,21.40
2022-09-05T22:37:01.146Z,21.36
2022-09-05T22:39:36.897Z,21.29
2022-09-05T22:42:10.230Z,21.31
2022-09-05T22:44:38.570Z,21.27
2022-09-05T22:47:06.284Z,21.23
2022-09-05T22:49:32.899Z,21.11
2022-09-05T22:51:59.853Z,21.08
2022-09-05T22:54:27.096Z,21.25
2022-09-05T22:56:53.789Z,21.04
2022-09-05T22:59:20.506Z,20.88
2022-09-05T23:01:47.456Z,21.00
2022-09-05T23:04:14.456Z,21.03
2022-09-05T23:06:41.330Z,21.00
2022-09-05T23:09:09.991Z,21.04
2022-09-05T23:11:36.694Z,21.01
2022-09-05T23:14:03.618Z,20.89
2022-09-05T23:16:30.847Z,20.81
2022-09-05T23:18:57.631Z,20.74
2022-09-05T23:21:24.255Z,20.76
2022-09-05T23:23:51.025Z,20.74
2022-09-05T23:26:17.907Z,20.70
2022-09-05T23:28:47.196Z,20.86
2022-09-05T23:31:14.040Z,20.71
2022-09-05T23:33:42.028Z,20.67
2022-09-05T23:36:13.671Z,20.74
2022-09-05T23:38:42.511Z,20.68
2022-09-05T23:41:14.307Z,20.73
2022-09-05T23:43:42.436Z,20.68
2022-09-05T23:46:09.790Z,20.72
2022-09-05T23:48:37.182Z,20.62
2022-09-05T23:51:12.453Z,20.61
2022-09-05T23:53:39.783Z,20.66
2022-09-05T23:56:08.178Z,20.58
2022-09-05T23:58:35.714Z,20.53
